Petoskey, MI (49770)

3:31 PM EDT on April 27, 2017 (GMT -0400)
MAS614 | | Change Station
Active Advisory: Special Statement Active Notice: Public Information Statement

Elev 747 ft 45.36 °N, 84.95 °W | Updated 23 minutes ago

Mostly Cloudy
Mostly Cloudy
64.0 °F
Feels Like 64.0 °F
N
23.0
Wind Variable Wind from SW
Gusts 39.0 mph

Today
High -- | Low -- °F
--% Chance of Precip.
Yesterday
High -- | Low -- °F
Precip. -- in
Pressure 29.36 in
Visibility 10.0 miles
Clouds Clear
Dew Point 48 °F
Humidity 56%
Rainfall 0.13 in
Snow Depth Not available.
6:34 AM 8:41 PM
Waxing Crescent, 3% visible
METAR KMGN 271914Z AUTO 24016G28KT 10SM CLR 13/07 A2936 RMK AO2 T01410070
Pressure 29.36 in
Visibility 10.0 miles
Clouds Clear
Dew Point 48 °F
Humidity 56%
Rainfall 0.13 in
Snow Depth Not available.
6:34 AM 8:41 PM
Waxing Crescent, 3% visible
METAR KMGN 271914Z AUTO 24016G28KT 10SM CLR 13/07 A2936 RMK AO2 T01410070

Get Your Daily Forecast Email!

Thanks for signing up!

Be on the lookout for a verification email in your inbox.

You'll start receiving severe weather alerts in your inbox..

×

10-Day Weather Forecast

Almanac

Astronomy

Apr. 27, 2017 Rise Set
Actual Time
Civil Twilight
Nautical Twilight
Astronomical Twilight
Moon
Length of Visible Light
Length of Day
Tomorrow will be .
, % of the Moon is Illuminated

Today's Extremes

State Highs State Lows

Community

WunderPhotos

WunderBlog® & News

Nearby

Air Quality

  Air Quality AQ Index Pollutant
Not available.

Snow Depth

Station Depth Elevation

Earthquake Activity

City Distance Mag. Time & Date
Minimum magnitude displayed is 2.5.

Coastal Water Temperatures

Place Temperature

Stations

Nearby Weather Stations

Station Location Temp. Windchill Dew Point Humidity Wind Precip. Elev Updated Type
                   

Watches & Warnings

Special Statement
Issued: 3:01 PM EDT Apr. 27, 2017 – National Weather Service

... Strong gusty winds to continue through the afternoon...

Wind gusts to 40 mph will continue across the region this
afternoon. A strong storm moving over Lake Michigan was bringing
the winds to the area. This storm will move north this afternoon
and into Canada tonight. Expect the winds to die down some late
this afternoon with gusts to 30 mph expected and then even more
overnight as the storm moves away.

The strong winds can pick up light object outdoors and make
driving difficult for high profile vehicles. Use caution if
outdoors this afternoon.